Bellmunt





Hora UTC 16:25
Temperatura 3.4 ºC
Humedad 90.0 %
Presión 1013.0 hPa
Pluja 0.0 mm
Velocidad viento 0.0 km/h
Dirección viento W

Datos diarios 2021-12-04



Hora UTC (invierno +1h; verano +2h)
Temperatura (ºC) Humedad (%) Presión (hPa) Velocidad viento (km/h) Precipitación (mm)
Hora UTC Aire Humedad Presión Vel. Dir. Vel. Max Dir. Intent. máx 5 min.
00:05 1.8 80.0 1019.0 0.0 W 0.0 0.0
00:10 1.8 79.0 1018.8 0.0 WNW 0.0 0.0
00:15 1.9 80.0 1018.7 0.0 W 0.0 0.0
00:20 2.1 76.0 1018.6 0.0 W 1.6 0.0
00:25 2.3 75.0 1018.6 0.0 WNW 0.0 0.0
00:30 2.6 73.0 1018.5 4.8 WNW 14.5 0.0
00:35 2.9 73.0 1018.5 3.2 WNW 16.1 0.0
00:40 3.4 71.0 1018.4 3.2 WNW 17.7 0.0
00:45 3.7 70.0 1018.2 0.0 WNW 17.7 0.0
00:50 3.8 70.0 1018.1 3.2 WNW 12.9 0.0
00:55 3.9 70.0 1018.0 4.8 WNW 16.1 0.0
01:00 4.2 69.0 1017.8 4.8 WNW 16.1 0.0
01:05 4.6 68.0 1017.7 4.8 WNW 8.0 0.0
01:10 4.8 67.0 1017.8 4.8 WNW 14.5 0.0
01:15 5.2 65.0 1017.8 3.2 WNW 19.3 0.0
01:20 5.4 65.0 1017.9 3.2 WNW 19.3 0.0
01:20 5.4 65.0 1017.8 4.8 WNW 17.7 0.0
01:25 5.6 65.0 1017.8 4.8 WNW 6.4 0.0
01:30 5.6 65.0 1017.8 3.2 WNW 17.7 0.0
01:35 5.7 65.0 1017.8 1.6 WNW 12.9 0.0
01:40 5.7 64.0 1017.9 4.8 W 20.9 0.0
01:45 5.7 64.0 1017.7 3.2 WNW 20.9 0.0
01:50 5.6 64.0 1017.6 3.2 WNW 14.5 0.0
01:55 5.4 64.0 1017.8 4.8 WNW 16.1 0.0
02:00 5.4 65.0 1017.7 3.2 WNW 16.1 0.0
02:05 5.4 65.0 1017.7 0.0 WNW 4.8 0.0
02:10 5.5 66.0 1017.7 0.0 WNW 4.8 0.0
02:15 5.7 65.0 1017.6 3.2 WNW 6.4 0.0
02:20 5.8 66.0 1017.5 0.0 WNW 6.4 0.0
02:25 6.1 66.0 1017.5 0.0 WNW 3.2 0.0
02:30 6.3 66.0 1017.5 3.2 W 11.3 0.0
02:40 6.5 65.0 1017.4 0.0 W 12.9 0.0
02:45 6.4 64.0 1017.4 0.0 WNW 12.9 0.0
02:50 6.4 62.0 1017.2 0.0 WNW 6.4 0.0
02:55 5.9 63.0 1017.0 0.0 WNW 6.4 0.0
03:00 5.9 65.0 1017.0 0.0 W 0.0 0.0
03:05 5.9 62.0 1017.0 0.0 W 0.0 0.0
03:05 5.5 63.0 1016.9 0.0 WNW 0.0 0.0
03:15 5.2 64.0 1017.0 0.0 W 12.9 0.0
03:20 4.7 66.0 1016.9 0.0 WNW 12.9 0.0
03:25 4.1 68.0 1016.8 0.0 WNW 4.8 0.0
03:30 4.1 69.0 1016.7 6.4 WNW 19.3 0.0
03:35 4.3 68.0 1016.8 1.6 W 19.3 0.0
03:40 4.4 68.0 1016.4 0.0 W 14.5 0.0
03:45 4.6 68.0 1016.4 4.8 W 12.9 0.0
03:50 4.6 68.0 1016.4 0.0 W 16.1 0.0
03:55 4.6 68.0 1016.4 0.0 W 16.1 0.0
04:00 4.4 68.0 1016.2 0.0 NW 12.9 0.0
04:05 4.3 69.0 1016.1 0.0 WNW 0.0 0.0
04:10 4.3 69.0 1016.0 0.0 WNW 0.0 0.0
04:15 4.5 69.0 1015.9 0.0 NW 0.0 0.0
04:20 4.6 68.0 1015.9 1.6 W 1.6 0.0
04:25 4.6 69.0 1015.8 0.0 WSW 1.6 0.0
04:30 4.8 69.0 1015.8 0.0 WSW 0.0 0.0
04:35 5.1 68.0 1015.8 0.0 SSW 0.0 0.0
04:40 5.2 68.0 1015.7 0.0 WSW 3.2 0.0
04:45 5.0 69.0 1015.8 0.0 SSW 3.2 0.0
04:50 5.0 68.0 1015.7 0.0 W 4.8 0.0
04:55 4.7 67.0 1015.7 0.0 W 4.8 0.0
05:00 4.7 68.0 1015.5 0.0 W 4.8 0.0
05:05 4.1 71.0 1015.6 0.0 W 4.8 0.0
05:10 3.8 72.0 1015.6 0.0 W 4.8 0.0
05:10 3.2 75.0 1015.5 0.0 S 1.6 0.0
05:20 1.9 81.0 1015.7 0.0 S 1.6 0.0
05:25 1.6 82.0 1015.8 0.0 W 0.0 0.0
05:30 1.8 80.0 1015.7 0.0 WNW 0.0 0.0
05:35 2.1 79.0 1015.8 0.0 WSW 1.6 0.0
05:40 2.0 79.0 1015.8 0.0 W 1.6 0.0
05:45 1.6 82.0 1015.8 0.0 W 0.0 0.0
05:50 1.1 83.0 1016.0 0.0 W 0.0 0.0
05:55 0.7 86.0 1015.9 1.6 WSW 6.4 0.0
06:00 0.4 87.0 1015.9 0.0 WSW 16.1 0.0
06:05 0.3 88.0 1016.0 0.0 W 14.5 0.0
06:10 0.2 89.0 1015.8 0.0 NW 12.9 0.0
06:15 0.1 89.0 1015.6 0.0 NW 0.0 0.0
06:20 0.0 89.0 1015.6 0.0 WNW 0.0 0.0
06:25 0.3 91.0 1015.6 3.2 W 14.5 0.0
06:30 0.9 90.0 1015.5 6.4 W 19.3 0.0
06:35 1.4 87.0 1015.4 6.4 W 22.5 0.0
06:40 1.9 85.0 1015.4 25.7 W 25.7 0.0
06:45 2.5 82.0 1015.3 6.4 W 27.4 0.0
06:50 3.1 80.0 1015.3 11.3 W 27.4 0.0
06:55 2.8 80.0 1015.3 3.2 W 27.4 0.0
07:00 2.6 80.0 1015.2 4.8 W 27.4 0.0
07:05 2.3 82.0 1015.3 0.0 WNW 6.4 0.0
07:10 1.7 84.0 1015.2 0.0 NW 4.8 0.0
07:15 1.6 85.0 1015.2 0.0 W 14.5 0.0
07:20 1.7 84.0 1015.1 0.0 WNW 20.9 0.0
07:25 1.8 83.0 1015.2 0.0 W 17.7 0.0
07:30 1.7 84.0 1015.2 4.8 W 17.7 0.0
07:35 1.5 84.0 1015.2 0.0 W 4.8 0.0
07:40 1.7 84.0 1015.1 0.0 WNW 11.3 0.0
07:45 2.3 81.0 1015.3 0.0 W 11.3 0.0
07:50 2.7 81.0 1015.2 0.0 WNW 0.0 0.0
07:55 2.9 79.0 1015.2 0.0 W 1.6 0.0
08:00 3.2 79.0 1015.2 0.0 W 3.2 0.0
08:05 3.3 78.0 1015.2 3.2 W 3.2 0.0
08:10 3.2 78.0 1015.1 0.0 W 14.5 0.0
08:15 3.1 79.0 1015.0 0.0 WSW 14.5 0.0
08:20 3.0 79.0 1015.0 4.8 W 12.9 0.0
08:25 3.1 79.0 1015.3 0.0 W 12.9 0.0
08:30 3.1 80.0 1015.1 0.0 W 11.3 0.0
08:35 3.2 78.0 1014.9 3.2 W 11.3 0.0
08:40 3.6 77.0 1014.8 1.6 W 20.9 0.0
08:45 3.6 79.0 1014.9 4.8 W 20.9 0.0
08:50 3.3 79.0 1015.0 4.8 W 19.3 0.0
08:50 3.3 78.0 1014.7 1.6 W 19.3 0.0
08:55 3.5 78.0 1014.7 3.2 W 11.3 0.0
09:00 3.4 79.0 1014.6 4.8 W 22.5 0.0
09:05 3.1 81.0 1014.6 3.2 W 22.5 0.0
09:10 2.8 80.0 1014.5 4.8 W 11.3 0.0
09:15 3.3 79.0 1014.5 3.2 W 32.2 0.0
09:20 3.4 79.0 1014.5 11.3 WNW 32.2 0.0
09:25 2.9 81.0 1014.6 0.0 WNW 22.5 0.0
09:30 2.4 83.0 1014.6 3.2 WNW 17.7 0.0
09:35 2.2 83.0 1014.6 0.0 WNW 17.7 0.0
09:40 2.1 84.0 1014.5 4.8 WNW 17.7 0.0
09:45 2.2 84.0 1014.6 0.0 WNW 8.0 0.0
09:50 2.1 85.0 1014.7 1.6 W 16.1 0.0
09:55 2.3 85.0 1014.5 0.0 W 16.1 0.0
10:00 2.5 84.0 1014.5 0.0 W 14.5 0.0
10:05 2.6 85.0 1014.3 0.0 WSW 12.9 0.0
10:10 2.8 85.0 1014.4 0.0 W 9.7 0.0
10:15 2.9 85.0 1014.2 0.0 WSW 9.7 0.0
10:20 2.5 85.0 1014.2 0.0 SSW 4.8 0.0
10:25 2.5 87.0 1014.4 0.0 WSW 1.6 0.0
10:30 2.6 87.0 1014.3 0.0 W 6.4 0.0
10:35 2.6 86.0 1014.3 0.0 W 4.8 0.0
10:40 2.7 87.0 1014.1 0.0 SSE 4.8 0.0
10:45 2.7 87.0 1014.3 0.0 W 3.2 0.0
10:50 2.7 86.0 1014.3 0.0 W 0.0 0.0
10:55 2.7 87.0 1014.4 0.0 SSW 0.0 0.0
11:00 2.9 87.0 1014.2 0.0 W 0.0 0.0
11:10 2.9 86.0 1014.3 0.0 W 0.0 0.0
11:15 2.9 86.0 1014.2 0.0 W 8.0 0.0
11:20 2.6 86.0 1014.1 0.0 NW 6.4 0.0
11:25 2.2 87.0 1013.8 0.0 WNW 1.6 0.0
11:30 2.1 88.0 1013.8 0.0 WNW 3.2 0.0
11:35 2.1 88.0 1013.8 3.2 WNW 11.3 0.0
11:40 2.1 89.0 1013.8 0.0 W 11.3 0.0
11:45 2.1 89.0 1013.9 0.0 WNW 12.9 0.0
11:50 2.1 90.0 1013.9 1.6 W 6.4 0.0
11:55 2.1 90.0 1013.6 0.0 WNW 6.4 0.0
12:00 2.1 90.0 1013.7 0.0 NW 11.3 0.0
12:05 2.1 90.0 1013.6 1.6 NW 17.7 0.0
12:10 2.2 90.0 1013.5 0.0 NW 17.7 0.0
12:15 2.2 90.0 1013.0 0.0 NW 6.4 0.0
12:20 2.8 89.0 1012.4 0.0 ESE 4.8 0.0
12:25 3.6 85.0 1012.7 0.0 E 4.8 0.0
12:30 3.9 84.0 1012.6 0.0 W 1.6 0.0
12:35 4.1 84.0 1012.8 0.0 WNW 4.8 0.0
12:40 3.8 85.0 1013.0 0.0 WSW 8.0 0.0
12:45 3.6 86.0 1013.3 0.0 WNW 9.7 0.0
12:50 3.3 87.0 1013.1 0.0 WNW 4.8 0.0
12:55 3.1 87.0 1013.0 0.0 WNW 1.6 0.0
13:00 2.9 88.0 1012.8 0.0 WNW 3.2 0.0
13:05 2.9 89.0 1013.1 0.0 W 14.5 0.0
13:10 2.9 89.0 1013.1 0.0 W 12.9 0.0
13:15 3.1 89.0 1013.0 0.0 S 11.3 0.0
13:20 3.1 89.0 1013.1 0.0 NW 8.0 0.0
13:25 3.1 89.0 1013.2 0.0 WSW 16.1 0.0
13:30 3.1 90.0 1013.0 0.0 W 16.1 0.0
13:35 3.1 90.0 1013.0 0.0 WNW 4.8 0.0
13:40 3.1 90.0 1013.0 0.0 NW 0.0 0.0
13:45 3.1 90.0 1013.1 0.0 W 9.7 0.0
13:50 3.1 90.0 1013.1 0.0 WNW 12.9 0.0
13:55 2.9 90.0 1013.1 0.0 WNW 12.9 0.0
14:00 2.9 90.0 1012.9 0.0 NW 6.4 0.0
14:05 2.9 91.0 1012.9 0.0 WSW 1.6 0.0
14:10 3.1 91.0 1012.6 0.0 SW 1.6 0.0
14:15 3.2 90.0 1012.7 0.0 WSW 0.0 0.0
14:20 3.3 90.0 1012.9 0.0 W 0.0 0.0
14:25 3.3 90.0 1012.9 0.0 W 0.0 0.0
14:30 3.3 90.0 1012.8 0.0 WSW 0.0 0.0
14:35 3.4 90.0 1012.6 0.0 W 3.2 0.0
14:40 3.4 90.0 1012.3 0.0 SSE 3.2 0.0
14:45 3.4 89.0 1012.5 0.0 SSW 0.0 0.0
14:50 3.4 89.0 1012.5 0.0 W 0.0 0.0
14:55 3.4 89.0 1012.5 0.0 W 0.0 0.0
15:00 3.4 90.0 1012.6 0.0 W 0.0 0.0
15:05 3.6 90.0 1012.6 0.0 W 0.0 0.0
15:10 3.6 90.0 1012.6 0.0 SSW 0.0 0.0
15:15 3.6 90.0 1012.5 0.0 SSW 0.0 0.0
15:20 3.4 90.0 1012.6 0.0 SSW 0.0 0.0
15:25 3.4 90.0 1012.6 0.0 W 0.0 0.0
15:30 3.3 90.0 1012.6 0.0 W 0.0 0.0
15:35 3.3 90.0 1012.6 0.0 WNW 0.0 0.0
15:40 3.3 90.0 1012.7 0.0 WNW 0.0 0.0
15:45 3.3 90.0 1012.8 0.0 WNW 0.0 0.0
15:50 3.3 90.0 1012.9 0.0 W 0.0 0.0
15:50 3.3 90.0 1012.9 0.0 WNW 0.0 0.0
16:00 3.3 90.0 1013.0 0.0 W 0.0 0.0
16:05 3.3 90.0 1012.9 0.0 W 0.0 0.0
16:10 3.2 90.0 1012.8 0.0 W 1.6 0.0
16:15 3.2 90.0 1012.8 0.0 W 3.2 0.0
16:20 3.3 90.0 1012.8 0.0 W 4.8 0.0
16:25 3.4 90.0 1013.0 0.0 W 14.5 0.0
Máxima 6.5 91.0 1019.0 25.7 W 32.2 0.0
Mínima 0.1 62.0 1012.3
Total 0.0